地図

経路データ

SID SEASON NUMBER BASIN SUBBASIN NAME ISO_TIME NATURE LAT LON WMO_WIND WMO_PRES WMO_AGENCY TRACK_TYPE DIST2LAND LANDFALL IFLAG USA_AGENCY USA_ATCF_ID USA_LAT USA_LON USA_RECORD USA_STATUS USA_WIND USA_PRES USA_SSHS USA_R34_NE USA_R34_SE USA_R34_SW USA_R34_NW USA_R50_NE USA_R50_SE USA_R50_SW USA_R50_NW USA_R64_NE USA_R64_SE USA_R64_SW USA_R64_NW USA_POCI USA_ROCI USA_RMW USA_EYE TOKYO_LAT TOKYO_LON TOKYO_GRADE TOKYO_WIND TOKYO_PRES TOKYO_R50_DIR TOKYO_R50_LONG TOKYO_R50_SHORT TOKYO_R30_DIR TOKYO_R30_LONG TOKYO_R30_SHORT TOKYO_LAND CMA_LAT CMA_LON CMA_CAT CMA_WIND CMA_PRES HKO_LAT HKO_LON HKO_CAT HKO_WIND HKO_PRES NEWDELHI_LAT NEWDELHI_LON NEWDELHI_GRADE NEWDELHI_WIND NEWDELHI_PRES NEWDELHI_CI NEWDELHI_DP NEWDELHI_POCI REUNION_LAT REUNION_LON REUNION_TYPE REUNION_WIND REUNION_PRES REUNION_TNUM REUNION_CI REUNION_RMW REUNION_R34_NE REUNION_R34_SE REUNION_R34_SW REUNION_R34_NW REUNION_R50_NE REUNION_R50_SE REUNION_R50_SW REUNION_R50_NW REUNION_R64_NE REUNION_R64_SE REUNION_R64_SW REUNION_R64_NW BOM_LAT BOM_LON BOM_TYPE BOM_WIND BOM_PRES BOM_TNUM BOM_CI BOM_RMW BOM_R34_NE BOM_R34_SE BOM_R34_SW BOM_R34_NW BOM_R50_NE BOM_R50_SE BOM_R50_SW BOM_R50_NW BOM_R64_NE BOM_R64_SE BOM_R64_SW BOM_R64_NW BOM_ROCI BOM_POCI BOM_EYE BOM_POS_METHOD BOM_PRES_METHOD NADI_LAT NADI_LON NADI_CAT NADI_WIND NADI_PRES WELLINGTON_LAT WELLINGTON_LON WELLINGTON_WIND WELLINGTON_PRES DS824_LAT DS824_LON DS824_STAGE DS824_WIND DS824_PRES TD9636_LAT TD9636_LON TD9636_STAGE TD9636_WIND TD9636_PRES TD9635_LAT TD9635_LON TD9635_WIND TD9635_PRES TD9635_ROCI NEUMANN_LAT NEUMANN_LON NEUMANN_CLASS NEUMANN_WIND NEUMANN_PRES MLC_LAT MLC_LON MLC_CLASS MLC_WIND MLC_PRES USA_GUST BOM_GUST BOM_GUST_PER REUNION_GUST REUNION_GUST_PER USA_SEAHGT USA_SEARAD_NE USA_SEARAD_SE USA_SEARAD_SW USA_SEARAD_NW STORM_SPEED STORM_DIR
1935255N11132 1935 50 WP MM NOT_NAMED 1935-09-12 10:00:00 NR 11.2000 131.800 main 652 645 __________O___ -1 11.2000 131.800 2 6 318
1935255N11132 1935 50 WP MM NOT_NAMED 1935-09-12 12:00:00 NR 11.3501 131.661 main 645 614 __________P___ -1 11.3501 131.661 2 6 317
1935255N11132 1935 50 WP MM NOT_NAMED 1935-09-12 15:00:00 NR 11.5752 131.448 main 614 595 __________P___ -1 11.5752 131.448 2 6 316
1935255N11132 1935 50 WP MM NOT_NAMED 1935-09-12 18:00:00 NR 11.8002 131.225 main 595 577 __________P___ -1 11.8002 131.225 2 6 315
1935255N11132 1935 50 WP MM NOT_NAMED 1935-09-12 21:00:00 NR 12.0251 130.985 main 577 569 __________P___ -1 12.0251 130.985 2 7 313
1935255N11132 1935 50 WP MM NOT_NAMED 1935-09-12 22:00:00 NR 12.1000 130.900 main 569 550 __________O___ -1 12.1000 130.900 2 7 311
1935255N11132 1935 50 WP MM NOT_NAMED 1935-09-13 00:00:00 NR 12.2499 130.722 main 550 528 __________P___ -1 12.2499 130.722 2 7 309
1935255N11132 1935 50 WP MM NOT_NAMED 1935-09-13 03:00:00 NR 12.4747 130.430 main 528 502 __________P___ -1 12.4747 130.430 2 8 307
1935255N11132 1935 50 WP MM NOT_NAMED 1935-09-13 06:00:00 NR 12.6997 130.102 main 502 462 __________P___ -1 12.6997 130.102 2 8 304
1935255N11132 1935 50 WP MM NOT_NAMED 1935-09-13 09:00:00 NR 12.9249 129.733 main 462 454 __________P___ -1 12.9249 129.733 2 9 302
1935255N11132 1935 50 WP MM NOT_NAMED 1935-09-13 10:00:00 NR 13.0000 129.600 main 454 424 __________O___ -1 13.0000 129.600 2 9 300
1935255N11132 1935 50 WP MM NOT_NAMED 1935-09-13 12:00:00 NR 13.1606 129.312 main 427 382 __________P___ -1 13.1606 129.312 2 10 299
1935255N11132 1935 50 WP MM NOT_NAMED 1935-09-13 15:00:00 NR 13.4017 128.843 main 382 351 __________P___ -1 13.4017 128.843 2 11 297
1935255N11132 1935 50 WP MM NOT_NAMED 1935-09-13 18:00:00 NR 13.6318 128.350 main 351 315 __________P___ -1 13.6318 128.350 2 11 295
1935255N11132 1935 50 WP MM NOT_NAMED 1935-09-13 21:00:00 NR 13.8385 127.859 main 315 305 __________P___ -1 13.8385 127.859 2 10 293
1935255N11132 1935 50 WP MM NOT_NAMED 1935-09-13 22:00:00 NR 13.9000 127.700 main 305 288 __________O___ -1 13.9000 127.700 2 9 291
1935255N11132 1935 50 WP MM NOT_NAMED 1935-09-14 00:00:00 NR 14.0059 127.408 main 288 264 __________P___ -1 14.0059 127.408 2 9 289
1935255N11132 1935 50 WP MM NOT_NAMED 1935-09-14 03:00:00 NR 14.1397 126.982 main 264 239 __________P___ -1 14.1397 126.982 2 9 287
1935255N11132 1935 50 WP MM NOT_NAMED 1935-09-14 06:00:00 NR 14.2546 126.563 main 241 191 __________P___ -1 14.2546 126.563 2 8 285
1935255N11132 1935 50 WP MM NOT_NAMED 1935-09-14 09:00:00 NR 14.3631 126.142 main 191 181 __________P___ -1 14.3631 126.142 2 8 285
1935255N11132 1935 50 WP MM NOT_NAMED 1935-09-14 10:00:00 NR 14.4000 126.000 main 181 155 __________O___ -1 14.4000 126.000 2 8 283
1935255N11132 1935 50 WP MM NOT_NAMED 1935-09-14 12:00:00 NR 14.4593 125.726 main 155 118 __________P___ -1 14.4593 125.726 2 8 282
1935255N11132 1935 50 WP MM NOT_NAMED 1935-09-14 15:00:00 NR 14.5478 125.309 main 118 93 __________P___ -1 14.5478 125.309 2 9 284
1935255N11132 1935 50 WP MM NOT_NAMED 1935-09-14 18:00:00 NR 14.6612 124.867 main 101 84 __________P___ -1 14.6612 124.867 2 9 287
1935255N11132 1935 50 WP MM NOT_NAMED 1935-09-14 21:00:00 NR 14.8278 124.377 main 90 89 __________P___ -1 14.8278 124.377 2 10 290
1935255N11132 1935 50 WP MM NOT_NAMED 1935-09-14 22:00:00 NR 14.9000 124.200 main 100 100 __________O___ -1 14.9000 124.200 2 12 297
1935255N11132 1935 50 WP MM NOT_NAMED 1935-09-15 00:00:00 NR 15.1058 123.806 main 127 127 __________P___ -1 15.1058 123.806 2 14 300
1935255N11132 1935 50 WP MM NOT_NAMED 1935-09-15 03:00:00 NR 15.4717 123.163 main 132 46 __________P___ -1 15.4717 123.163 2 15 301
1935255N11132 1935 50 WP MM NOT_NAMED 1935-09-15 06:00:00 NR 15.8560 122.488 main 46 0 __________P___ -1 15.8560 122.488 2 15 299
1935255N11132 1935 50 WP MM NOT_NAMED 1935-09-15 09:00:00 NR 16.2025 121.817 main 0 0 __________P___ -1 16.2025 121.817 2 14 297
1935255N11132 1935 50 WP MM NOT_NAMED 1935-09-15 10:00:00 NR 16.3000 121.600 main 0 0 __________O___ -1 16.3000 121.600 2 13 292
1935255N11132 1935 50 WP MM NOT_NAMED 1935-09-15 12:00:00 NR 16.4364 121.214 main 0 0 __________P___ -1 16.4364 121.214 2 11 287
1935255N11132 1935 50 WP MM NOT_NAMED 1935-09-15 15:00:00 NR 16.5849 120.656 main 0 0 __________P___ -1 16.5849 120.656 2 11 283
1935255N11132 1935 50 WP MM NOT_NAMED 1935-09-15 18:00:00 NR 16.6885 120.096 main 24 24 __________P___ -1 16.6885 120.096 2 11 280
1935255N11132 1935 50 WP MM NOT_NAMED 1935-09-15 21:00:00 NR 16.7722 119.508 main 64 64 __________P___ -1 16.7722 119.508 2 12 278
1935255N11132 1935 50 WP MM NOT_NAMED 1935-09-15 22:00:00 NR 16.8000 119.300 main 77 77 __________O___ -1 16.8000 119.300 3 13 278
1935255N11132 1935 50 WP MM NOT_NAMED 1935-09-16 00:00:00 NR 16.8675 118.835 main 125 125 __________P___ -1 16.8675 118.835 3 14 278
1935255N11132 1935 50 WP MM NOT_NAMED 1935-09-16 03:00:00 NR 16.9621 118.099 main 197 197 __________P___ -1 16.9621 118.099 3 14 278
1935255N11132 1935 50 WP MM NOT_NAMED 1935-09-16 06:00:00 NR 17.0569 117.351 main 270 280 __________P___ -1 17.0569 117.351 3 14 278
1935255N11132 1935 50 WP MM NOT_NAMED 1935-09-16 09:00:00 NR 17.1614 116.629 main 355 355 __________P___ -1 17.1614 116.629 3 14 279
1935255N11132 1935 50 WP MM NOT_NAMED 1935-09-16 10:00:00 NR 17.2000 116.400 main 375 375 __________O___ -1 17.2000 116.400 4 13 282
1935255N11132 1935 50 WP MM NOT_NAMED 1935-09-16 12:00:00 NR 17.2962 115.946 main 430 430 __________P___ -1 17.2962 115.946 4 13 284
1935255N11132 1935 50 WP MM NOT_NAMED 1935-09-16 15:00:00 NR 17.4537 115.302 main 497 449 __________P___ -1 17.4537 115.302 4 12 285
1935255N11132 1935 50 WP MM NOT_NAMED 1935-09-16 18:00:00 NR 17.6128 114.724 main 449 392 __________P___ -1 17.6128 114.724 4 11 287
1935255N11132 1935 50 WP MM NOT_NAMED 1935-09-16 21:00:00 NR 17.7576 114.238 main 392 383 __________P___ -1 17.7576 114.238 4 9 287
1935255N11132 1935 50 WP MM NOT_NAMED 1935-09-16 22:00:00 NR 17.8000 114.100 main 383 359 __________O___ -1 17.8000 114.100 4 7 287
1935255N11132 1935 50 WP MM NOT_NAMED 1935-09-17 00:00:00 NR 17.8690 113.864 main 359 327 __________P___ -1 17.8690 113.864 4 6 288
1935255N11132 1935 50 WP MM NOT_NAMED 1935-09-17 03:00:00 NR 17.9543 113.600 main 327 309 __________P___ -1 17.9543 113.600 4 5 290
1935255N11132 1935 50 WP MM NOT_NAMED 1935-09-17 06:00:00 NR 18.0233 113.408 main 309 294 __________P___ -1 18.0233 113.408 4 4 291
1935255N11132 1935 50 WP MM NOT_NAMED 1935-09-17 09:00:00 NR 18.0818 113.251 main 294 285 __________P___ -1 18.0818 113.251 4 3 291
1935255N11132 1935 50 WP MM NOT_NAMED 1935-09-17 10:00:00 NR 18.1000 113.200 main 285 277 __________O___ -1 18.1000 113.200 4 4 287
1935255N11132 1935 50 WP MM NOT_NAMED 1935-09-17 12:00:00 NR 18.1337 113.074 main 277 253 __________P___ -1 18.1337 113.074 4 4 285
1935255N11132 1935 50 WP MM NOT_NAMED 1935-09-17 15:00:00 NR 18.1779 112.899 main 253 237 __________P___ -1 18.1779 112.899 4 3 285
1935255N11132 1935 50 WP MM NOT_NAMED 1935-09-17 18:00:00 NR 18.2228 112.730 main 237 222 __________P___ -1 18.2228 112.730 4 3 287
1935255N11132 1935 50 WP MM NOT_NAMED 1935-09-17 21:00:00 NR 18.2778 112.559 main 222 214 __________P___ -1 18.2778 112.559 4 3 289
1935255N11132 1935 50 WP MM NOT_NAMED 1935-09-17 22:00:00 NR 18.3000 112.500 main 214 199 __________O___ -1 18.3000 112.500 4 4 296
1935255N11132 1935 50 WP MM NOT_NAMED 1935-09-18 00:00:00 NR 18.3657 112.375 main 199 176 __________P___ -1 18.3657 112.375 4 4 300
1935255N11132 1935 50 WP MM NOT_NAMED 1935-09-18 03:00:00 NR 18.4771 112.181 main 176 153 __________P___ -1 18.4771 112.181 4 4 301
1935255N11132 1935 50 WP MM NOT_NAMED 1935-09-18 06:00:00 NR 18.5873 111.980 main 153 130 __________P___ -1 18.5873 111.980 4 4 297
1935255N11132 1935 50 WP MM NOT_NAMED 1935-09-18 09:00:00 NR 18.6776 111.771 main 130 120 __________P___ -1 18.6776 111.771 4 4 293
1935255N11132 1935 50 WP MM NOT_NAMED 1935-09-18 10:00:00 NR 18.7000 111.700 main 120 110 __________O___ -1 18.7000 111.700 4 4 285
1935255N11132 1935 50 WP MM NOT_NAMED 1935-09-18 12:00:00 NR 18.7333 111.553 main 110 76 __________P___ -1 18.7333 111.553 4 4 279
1935255N11132 1935 50 WP MM NOT_NAMED 1935-09-18 15:00:00 NR 18.7583 111.326 main 76 57 __________P___ -1 18.7583 111.326 4 4 273
1935255N11132 1935 50 WP MM NOT_NAMED 1935-09-18 18:00:00 NR 18.7533 111.098 main 57 43 __________P___ -1 18.7533 111.098 4 4 265
1935255N11132 1935 50 WP MM NOT_NAMED 1935-09-18 21:00:00 NR 18.7183 110.873 main 43 33 __________P___ -1 18.7183 110.873 4 4 259
1935255N11132 1935 50 WP MM NOT_NAMED 1935-09-18 22:00:00 NR 18.7000 110.800 main 33 23 __________O___ -1 18.7000 110.800 4 4 254
1935255N11132 1935 50 WP MM NOT_NAMED 1935-09-19 00:00:00 NR 18.6614 110.658 main 23 15 __________P___ -1 18.6614 110.658 4 4 250
1935255N11132 1935 50 WP MM NOT_NAMED 1935-09-19 03:00:00 NR 18.5783 110.452 main 15 11 __________P___ -1 18.5783 110.452 4 4 244
1935255N11132 1935 50 WP MM NOT_NAMED 1935-09-19 06:00:00 NR 18.4708 110.253 main 15 10 __________P___ -1 18.4708 110.253 4 4 238
1935255N11132 1935 50 WP MM NOT_NAMED 1935-09-19 09:00:00 NR 18.3449 110.062 main 15 11 __________P___ -1 18.3449 110.062 4 4 235
1935255N11132 1935 50 WP MM NOT_NAMED 1935-09-19 10:00:00 NR 18.3000 110.000 main 11 11 __________O___ -1 18.3000 110.000 4 4 232
1935255N11132 1935 50 WP MM NOT_NAMED 1935-09-19 12:00:00 NR 18.2061 109.878 main 21 10 __________P___ -1 18.2061 109.878 4 5 229
1935255N11132 1935 50 WP MM NOT_NAMED 1935-09-19 15:00:00 NR 18.0526 109.700 main 11 22 __________P___ -1 18.0526 109.700 4 5 227
1935255N11132 1935 50 WP MM NOT_NAMED 1935-09-19 18:00:00 NR 17.8950 109.528 main 33 33 __________P___ -1 17.8950 109.528 4 4 227
1935255N11132 1935 50 WP MM NOT_NAMED 1935-09-19 21:00:00 NR 17.7457 109.357 main 56 59 __________P___ -1 17.7457 109.357 4 4 228
1935255N11132 1935 50 WP MM NOT_NAMED 1935-09-19 22:00:00 NR 17.7000 109.300 main 59 59 __________O___ -1 17.7000 109.300 4 4 234
1935255N11132 1935 50 WP MM NOT_NAMED 1935-09-20 00:00:00 NR 17.6219 109.181 main 74 74 __________P___ -1 17.6219 109.181 4 4 237
1935255N11132 1935 50 WP MM NOT_NAMED 1935-09-20 03:00:00 NR 17.5174 109.002 main 94 94 __________P___ -1 17.5174 109.002 4 4 239
1935255N11132 1935 50 WP MM NOT_NAMED 1935-09-20 06:00:00 NR 17.4224 108.826 main 113 113 __________P___ -1 17.4224 108.826 4 4 241
1935255N11132 1935 50 WP MM NOT_NAMED 1935-09-20 09:00:00 NR 17.3309 108.655 main 127 130 __________P___ -1 17.3309 108.655 4 4 241
1935255N11132 1935 50 WP MM NOT_NAMED 1935-09-20 10:00:00 NR 17.3000 108.600 main 130 116 __________O___ -1 17.3000 108.600 4 3 238
1935255N11132 1935 50 WP MM NOT_NAMED 1935-09-20 12:00:00 NR 17.2385 108.502 main 116 101 __________P___ -1 17.2385 108.502 4 3 236
1935255N11132 1935 50 WP MM NOT_NAMED 1935-09-20 15:00:00 NR 17.1464 108.362 main 101 78 __________P___ -1 17.1464 108.362 4 3 235
1935255N11132 1935 50 WP MM NOT_NAMED 1935-09-20 18:00:00 NR 17.0490 108.219 main 78 62 __________P___ -1 17.0490 108.219 4 4 235
1935255N11132 1935 50 WP MM NOT_NAMED 1935-09-20 21:00:00 NR 16.9400 108.059 main 62 54 __________P___ -1 16.9400 108.059 4 4 234
1935255N11132 1935 50 WP MM NOT_NAMED 1935-09-20 22:00:00 NR 16.9000 108.000 main 54 39 __________O___ -1 16.9000 108.000 4 5 233
1935255N11132 1935 50 WP MM NOT_NAMED 1935-09-21 00:00:00 NR 16.8062 107.870 main 39 15 __________P___ -1 16.8062 107.870 4 5 233
1935255N11132 1935 50 WP MM NOT_NAMED 1935-09-21 03:00:00 NR 16.6527 107.655 main 15 0 __________P___ -1 16.6527 107.655 4 5 234
1935255N11132 1935 50 WP MM NOT_NAMED 1935-09-21 06:00:00 NR 16.4950 107.424 main 0 0 __________P___ -1 16.4950 107.424 4 5 236
1935255N11132 1935 50 WP MM NOT_NAMED 1935-09-21 09:00:00 NR 16.3457 107.182 main 0 0 __________P___ -1 16.3457 107.182 4 6 238
1935255N11132 1935 50 WP MM NOT_NAMED 1935-09-21 10:00:00 NR 16.3000 107.100 main 0 0 __________O___ -1 16.3000 107.100 4 5 242
1935255N11132 1935 50 WP MM NOT_NAMED 1935-09-21 12:00:00 NR 16.2164 106.935 main 0 0 __________P___ -1 16.2164 106.935 4 5 244
1935255N11132 1935 50 WP MM NOT_NAMED 1935-09-21 15:00:00 NR 16.1079 106.686 main 0 0 __________P___ -1 16.1079 106.686 4 5 247
1935255N11132 1935 50 WP MM NOT_NAMED 1935-09-21 18:00:00 NR 16.0138 106.435 main 0 0 __________P___ -1 16.0138 106.435 4 5 250
1935255N11132 1935 50 WP MM NOT_NAMED 1935-09-21 21:00:00 NR 15.9279 106.184 main 0 0 __________P___ -1 15.9279 106.184 4 5 250
1935255N11132 1935 50 WP MM NOT_NAMED 1935-09-21 22:00:00 NR 15.9000 106.100 main 0 __________O___ -1 15.9000 106.100 4 5 249

デジタル台風データ・検索

IBTrACS Databaseについて

本データベースは、米国NOAAが公開する1842年以降の世界の熱帯低気圧のベストトラックデータアーカイブInternational Best Track Archive for Climate Stewardship (IBTrACS)を、ウェブで閲覧しやすい形式に変換したものです。

最終更新日:2021-12-06